sensor_id;sensor_type;location;lat;lon;timestamp;pressure;altitude;pressure_sealevel;temperature;humidity
71666;BME280;59503;53.486;10.196;2023-02-28T00:01:41;103252.38;;;0.79;96.82
71666;BME280;59503;53.486;10.196;2023-02-28T00:04:07;103256.91;;;0.67;96.97
71666;BME280;59503;53.486;10.196;2023-02-28T00:06:34;103245.66;;;0.54;97.32
71666;BME280;59503;53.486;10.196;2023-02-28T00:08:59;103252.03;;;0.41;98.73
71666;BME280;59503;53.486;10.196;2023-02-28T00:11:25;103246.09;;;0.28;98.88
71666;BME280;59503;53.486;10.196;2023-02-28T00:13:51;103233.56;;;0.17;100.00
71666;BME280;59503;53.486;10.196;2023-02-28T00:16:19;103240.50;;;0.06;100.00
71666;BME280;59503;53.486;10.196;2023-02-28T00:18:45;103232.25;;;-0.04;100.00
71666;BME280;59503;53.486;10.196;2023-02-28T00:21:12;103234.53;;;-0.19;100.00
71666;BME280;59503;53.486;10.196;2023-02-28T00:23:37;103239.63;;;-0.29;100.00
71666;BME280;59503;53.486;10.196;2023-02-28T00:26:03;103235.03;;;-0.40;100.00
71666;BME280;59503;53.486;10.196;2023-02-28T00:28:29;103241.75;;;-0.49;100.00
71666;BME280;59503;53.486;10.196;2023-02-28T00:30:54;103238.00;;;-0.60;100.00
71666;BME280;59503;53.486;10.196;2023-02-28T00:33:20;103240.63;;;-0.71;100.00
71666;BME280;59503;53.486;10.196;2023-02-28T00:35:45;103238.63;;;-0.76;100.00
71666;BME280;59503;53.486;10.196;2023-02-28T00:38:12;103232.78;;;-0.84;100.00
71666;BME280;59503;53.486;10.196;2023-02-28T00:40:38;103237.75;;;-0.88;100.00
71666;BME280;59503;53.486;10.196;2023-02-28T00:43:03;103247.63;;;-0.88;100.00
71666;BME280;59503;53.486;10.196;2023-02-28T00:45:29;103232.94;;;-0.97;100.00
71666;BME280;59503;53.486;10.196;2023-02-28T00:47:55;103245.72;;;-0.99;100.00
71666;BME280;59503;53.486;10.196;2023-02-28T00:50:20;103244.13;;;-1.07;100.00
71666;BME280;59503;53.486;10.196;2023-02-28T00:52:47;103252.22;;;-1.13;100.00
71666;BME280;59503;53.486;10.196;2023-02-28T00:55:12;103259.47;;;-1.20;100.00
71666;BME280;59503;53.486;10.196;2023-02-28T00:57:38;103252.44;;;-1.33;100.00
71666;BME280;59503;53.486;10.196;2023-02-28T01:00:04;103251.09;;;-1.42;100.00
71666;BME280;59503;53.486;10.196;2023-02-28T01:02:30;103264.72;;;-1.50;100.00
71666;BME280;59503;53.486;10.196;2023-02-28T01:04:55;103253.13;;;-1.62;100.00
71666;BME280;59503;53.486;10.196;2023-02-28T01:07:22;103263.25;;;-1.71;100.00
71666;BME280;59503;53.486;10.196;2023-02-28T01:09:48;103259.03;;;-1.78;100.00
71666;BME280;59503;53.486;10.196;2023-02-28T01:12:13;103267.66;;;-1.83;100.00
71666;BME280;59503;53.486;10.196;2023-02-28T01:14:39;103263.28;;;-1.95;100.00
71666;BME280;59503;53.486;10.196;2023-02-28T01:17:05;103269.03;;;-1.98;100.00
71666;BME280;59503;53.486;10.196;2023-02-28T01:19:30;103267.28;;;-2.11;100.00
71666;BME280;59503;53.486;10.196;2023-02-28T01:21:56;103276.53;;;-2.13;100.00
71666;BME280;59503;53.486;10.196;2023-02-28T01:24:21;103269.59;;;-2.21;100.00
71666;BME280;59503;53.486;10.196;2023-02-28T01:26:46;103253.31;;;-2.37;100.00
71666;BME280;59503;53.486;10.196;2023-02-28T01:29:12;103267.25;;;-2.35;100.00
71666;BME280;59503;53.486;10.196;2023-02-28T01:31:37;103266.06;;;-2.46;100.00
71666;BME280;59503;53.486;10.196;2023-02-28T01:34:03;103274.88;;;-2.45;100.00
71666;BME280;59503;53.486;10.196;2023-02-28T01:36:29;103275.88;;;-2.46;100.00
71666;BME280;59503;53.486;10.196;2023-02-28T01:38:54;103275.50;;;-2.50;100.00
71666;BME280;59503;53.486;10.196;2023-02-28T01:41:23;103256.69;;;-2.55;100.00
71666;BME280;59503;53.486;10.196;2023-02-28T01:46:15;103264.31;;;-2.65;100.00
71666;BME280;59503;53.486;10.196;2023-02-28T01:48:54;103265.56;;;-2.68;100.00
71666;BME280;59503;53.486;10.196;2023-02-28T01:51:26;103269.66;;;-2.72;100.00
71666;BME280;59503;53.486;10.196;2023-02-28T01:53:57;103259.66;;;-2.76;100.00
71666;BME280;59503;53.486;10.196;2023-02-28T01:56:28;103261.28;;;-2.75;100.00
71666;BME280;59503;53.486;10.196;2023-02-28T01:58:54;103263.94;;;-2.75;100.00
71666;BME280;59503;53.486;10.196;2023-02-28T02:01:21;103255.97;;;-2.75;100.00
71666;BME280;59503;53.486;10.196;2023-02-28T02:03:49;103258.44;;;-2.80;100.00
71666;BME280;59503;53.486;10.196;2023-02-28T02:06:24;103263.34;;;-2.77;100.00
71666;BME280;59503;53.486;10.196;2023-02-28T02:08:50;103267.81;;;-2.71;100.00
71666;BME280;59503;53.486;10.196;2023-02-28T02:11:19;103259.13;;;-2.54;100.00
71666;BME280;59503;53.486;10.196;2023-02-28T02:16:33;103252.06;;;-2.35;100.00
71666;BME280;59503;53.486;10.196;2023-02-28T02:24:16;103254.53;;;-2.40;100.00
71666;BME280;59503;53.486;10.196;2023-02-28T02:30:21;103253.03;;;-2.61;100.00
71666;BME280;59503;53.486;10.196;2023-02-28T02:38:24;103251.53;;;-2.88;100.00
71666;BME280;59503;53.486;10.196;2023-02-28T02:44:19;103255.41;;;-2.90;100.00
71666;BME280;59503;53.486;10.196;2023-02-28T02:46:44;103264.19;;;-2.83;100.00
71666;BME280;59503;53.486;10.196;2023-02-28T02:49:15;103258.47;;;-2.87;100.00
71666;BME280;59503;53.486;10.196;2023-02-28T02:51:43;103267.91;;;-2.91;100.00
71666;BME280;59503;53.486;10.196;2023-02-28T02:54:43;103261.56;;;-2.90;100.00
71666;BME280;59503;53.486;10.196;2023-02-28T02:57:34;103247.31;;;-2.64;100.00
71666;BME280;59503;53.486;10.196;2023-02-28T03:00:03;103254.31;;;-2.70;100.00
71666;BME280;59503;53.486;10.196;2023-02-28T03:02:31;103249.44;;;-2.79;100.00
71666;BME280;59503;53.486;10.196;2023-02-28T03:05:02;103254.81;;;-2.86;100.00
71666;BME280;59503;53.486;10.196;2023-02-28T03:07:29;103255.22;;;-2.95;100.00
71666;BME280;59503;53.486;10.196;2023-02-28T03:09:56;103258.94;;;-3.03;100.00
71666;BME280;59503;53.486;10.196;2023-02-28T03:12:40;103260.81;;;-3.10;100.00
71666;BME280;59503;53.486;10.196;2023-02-28T03:15:12;103253.63;;;-3.03;100.00
71666;BME280;59503;53.486;10.196;2023-02-28T03:17:53;103262.41;;;-3.02;100.00
71666;BME280;59503;53.486;10.196;2023-02-28T03:23:10;103253.31;;;-2.82;100.00
71666;BME280;59503;53.486;10.196;2023-02-28T03:26:31;103258.00;;;-2.77;100.00
71666;BME280;59503;53.486;10.196;2023-02-28T03:28:49;103256.81;;;-2.81;100.00
71666;BME280;59503;53.486;10.196;2023-02-28T03:31:27;103266.25;;;-2.85;100.00
71666;BME280;59503;53.486;10.196;2023-02-28T03:34:17;103260.09;;;-2.79;100.00
71666;BME280;59503;53.486;10.196;2023-02-28T03:36:49;103268.06;;;-2.79;100.00
71666;BME280;59503;53.486;10.196;2023-02-28T03:39:22;103262.34;;;-2.83;100.00
71666;BME280;59503;53.486;10.196;2023-02-28T03:41:54;103271.97;;;-2.88;100.00
71666;BME280;59503;53.486;10.196;2023-02-28T03:44:25;103263.22;;;-3.02;100.00
71666;BME280;59503;53.486;10.196;2023-02-28T03:47:00;103280.25;;;-3.09;100.00
71666;BME280;59503;53.486;10.196;2023-02-28T03:49:35;103277.38;;;-3.21;100.00
71666;BME280;59503;53.486;10.196;2023-02-28T03:52:06;103266.19;;;-3.36;100.00
71666;BME280;59503;53.486;10.196;2023-02-28T03:54:41;103279.69;;;-3.37;100.00
71666;BME280;59503;53.486;10.196;2023-02-28T03:57:23;103275.81;;;-3.41;100.00
71666;BME280;59503;53.486;10.196;2023-02-28T04:00:13;103277.03;;;-3.37;100.00
71666;BME280;59503;53.486;10.196;2023-02-28T04:02:40;103275.19;;;-3.37;100.00
71666;BME280;59503;53.486;10.196;2023-02-28T04:05:06;103281.94;;;-3.28;100.00
71666;BME280;59503;53.486;10.196;2023-02-28T04:07:32;103273.75;;;-3.33;100.00
71666;BME280;59503;53.486;10.196;2023-02-28T04:09:58;103274.97;;;-3.35;100.00
71666;BME280;59503;53.486;10.196;2023-02-28T04:12:24;103276.22;;;-3.44;100.00
71666;BME280;59503;53.486;10.196;2023-02-28T04:14:49;103282.13;;;-3.36;100.00
71666;BME280;59503;53.486;10.196;2023-02-28T04:17:16;103274.16;;;-3.29;100.00
71666;BME280;59503;53.486;10.196;2023-02-28T04:19:41;103273.16;;;-3.35;100.00
71666;BME280;59503;53.486;10.196;2023-02-28T04:22:08;103269.25;;;-3.39;100.00
71666;BME280;59503;53.486;10.196;2023-02-28T04:24:33;103270.91;;;-3.38;100.00
71666;BME280;59503;53.486;10.196;2023-02-28T04:26:59;103267.00;;;-3.35;100.00
71666;BME280;59503;53.486;10.196;2023-02-28T04:29:30;103273.78;;;-3.39;100.00
71666;BME280;59503;53.486;10.196;2023-02-28T04:31:57;103265.00;;;-3.46;100.00
71666;BME280;59503;53.486;10.196;2023-02-28T04:34:23;103274.81;;;-3.53;100.00
71666;BME280;59503;53.486;10.196;2023-02-28T04:36:49;103283.59;;;-3.59;100.00
71666;BME280;59503;53.486;10.196;2023-02-28T04:39:16;103280.34;;;-3.68;100.00
71666;BME280;59503;53.486;10.196;2023-02-28T04:41:44;103271.97;;;-3.71;100.00
71666;BME280;59503;53.486;10.196;2023-02-28T04:44:09;103274.00;;;-3.73;100.00
71666;BME280;59503;53.486;10.196;2023-02-28T04:46:34;103271.16;;;-3.78;100.00
71666;BME280;59503;53.486;10.196;2023-02-28T04:49:00;103270.53;;;-3.87;100.00
71666;BME280;59503;53.486;10.196;2023-02-28T04:51:25;103273.59;;;-3.90;100.00
71666;BME280;59503;53.486;10.196;2023-02-28T04:53:51;103272.56;;;-3.96;100.00
71666;BME280;59503;53.486;10.196;2023-02-28T04:56:17;103272.16;;;-3.99;100.00
71666;BME280;59503;53.486;10.196;2023-02-28T04:58:43;103274.19;;;-4.01;100.00
71666;BME280;59503;53.486;10.196;2023-02-28T05:01:19;103282.34;;;-4.03;100.00
71666;BME280;59503;53.486;10.196;2023-02-28T05:03:45;103293.41;;;-4.06;100.00
71666;BME280;59503;53.486;10.196;2023-02-28T05:06:12;103286.63;;;-4.08;100.00
71666;BME280;59503;53.486;10.196;2023-02-28T05:08:38;103282.97;;;-4.14;100.00
71666;BME280;59503;53.486;10.196;2023-02-28T05:11:06;103284.19;;;-4.16;100.00
71666;BME280;59503;53.486;10.196;2023-02-28T05:13:33;103289.06;;;-4.20;100.00
71666;BME280;59503;53.486;10.196;2023-02-28T05:15:59;103283.97;;;-4.28;100.00
71666;BME280;59503;53.486;10.196;2023-02-28T05:18:25;103282.13;;;-4.34;100.00
71666;BME280;59503;53.486;10.196;2023-02-28T05:20:50;103283.34;;;-4.23;100.00
71666;BME280;59503;53.486;10.196;2023-02-28T05:23:17;103292.13;;;-4.23;100.00
71666;BME280;59503;53.486;10.196;2023-02-28T05:25:44;103291.50;;;-4.25;100.00
71666;BME280;59503;53.486;10.196;2023-02-28T05:28:09;103291.31;;;-4.23;100.00
71666;BME280;59503;53.486;10.196;2023-02-28T05:30:35;103295.00;;;-4.24;100.00
71666;BME280;59503;53.486;10.196;2023-02-28T05:33:00;103290.91;;;-4.27;100.00
71666;BME280;59503;53.486;10.196;2023-02-28T05:35:26;103296.22;;;-4.27;100.00
71666;BME280;59503;53.486;10.196;2023-02-28T05:37:51;103296.19;;;-4.33;100.00
71666;BME280;59503;53.486;10.196;2023-02-28T05:40:17;103297.00;;;-4.33;100.00
71666;BME280;59503;53.486;10.196;2023-02-28T05:42:45;103294.16;;;-4.31;100.00
71666;BME280;59503;53.486;10.196;2023-02-28T05:45:11;103302.53;;;-4.34;100.00
71666;BME280;59503;53.486;10.196;2023-02-28T05:47:36;103296.59;;;-4.36;100.00
71666;BME280;59503;53.486;10.196;2023-02-28T05:50:02;103295.75;;;-4.37;100.00
71666;BME280;59503;53.486;10.196;2023-02-28T05:52:28;103305.78;;;-4.39;100.00
71666;BME280;59503;53.486;10.196;2023-02-28T05:54:55;103298.19;;;-4.42;100.00
71666;BME280;59503;53.486;10.196;2023-02-28T05:57:21;103296.16;;;-4.46;100.00
71666;BME280;59503;53.486;10.196;2023-02-28T05:59:46;103313.75;;;-4.39;100.00
71666;BME280;59503;53.486;10.196;2023-02-28T06:02:14;103310.47;;;-4.41;100.00
71666;BME280;59503;53.486;10.196;2023-02-28T06:04:40;103302.28;;;-4.46;100.00
71666;BME280;59503;53.486;10.196;2023-02-28T06:07:06;103308.44;;;-4.45;100.00
71666;BME280;59503;53.486;10.196;2023-02-28T06:09:32;103301.66;;;-4.48;100.00
71666;BME280;59503;53.486;10.196;2023-02-28T06:12:02;103313.97;;;-4.40;100.00
71666;BME280;59503;53.486;10.196;2023-02-28T06:14:29;103317.41;;;-4.40;100.00
71666;BME280;59503;53.486;10.196;2023-02-28T06:16:56;103321.91;;;-4.40;100.00
71666;BME280;59503;53.486;10.196;2023-02-28T06:19:21;103321.91;;;-4.40;100.00
71666;BME280;59503;53.486;10.196;2023-02-28T06:21:49;103327.22;;;-4.40;100.00
71666;BME280;59503;53.486;10.196;2023-02-28T06:24:15;103327.22;;;-4.40;100.00
71666;BME280;59503;53.486;10.196;2023-02-28T06:26:41;103331.31;;;-4.38;100.00
71666;BME280;59503;53.486;10.196;2023-02-28T06:29:06;103333.97;;;-4.38;100.00
71666;BME280;59503;53.486;10.196;2023-02-28T06:31:32;103336.22;;;-4.35;100.00
71666;BME280;59503;53.486;10.196;2023-02-28T06:33:58;103335.00;;;-4.32;100.00
71666;BME280;59503;53.486;10.196;2023-02-28T06:36:23;103331.13;;;-4.23;100.00
71666;BME280;59503;53.486;10.196;2023-02-28T06:38:48;103322.81;;;-4.14;100.00
71666;BME280;59503;53.486;10.196;2023-02-28T06:41:20;103336.75;;;-3.79;100.00
71666;BME280;59503;53.486;10.196;2023-02-28T06:43:45;103335.75;;;-3.58;100.00
71666;BME280;59503;53.486;10.196;2023-02-28T06:46:13;103338.59;;;-3.34;100.00
71666;BME280;59503;53.486;10.196;2023-02-28T06:48:39;103336.50;;;-3.12;100.00
71666;BME280;59503;53.486;10.196;2023-02-28T06:51:11;103332.56;;;-2.90;100.00
71666;BME280;59503;53.486;10.196;2023-02-28T06:53:38;103334.38;;;-2.71;100.00
71666;BME280;59503;53.486;10.196;2023-02-28T06:56:12;103330.59;;;-2.50;100.00
71666;BME280;59503;53.486;10.196;2023-02-28T06:58:38;103345.66;;;-2.31;100.00
71666;BME280;59503;53.486;10.196;2023-02-28T07:01:05;103339.41;;;-2.12;100.00
71666;BME280;59503;53.486;10.196;2023-02-28T07:03:31;103336.63;;;-1.93;100.00
71666;BME280;59503;53.486;10.196;2023-02-28T07:05:57;103342.63;;;-1.73;100.00
71666;BME280;59503;53.486;10.196;2023-02-28T07:08:23;103345.16;;;-1.53;100.00
71666;BME280;59503;53.486;10.196;2023-02-28T07:10:53;103342.75;;;-1.37;100.00
71666;BME280;59503;53.486;10.196;2023-02-28T07:13:19;103333.56;;;-1.16;100.00
71666;BME280;59503;53.486;10.196;2023-02-28T07:15:53;103348.47;;;-0.90;100.00
71666;BME280;59503;53.486;10.196;2023-02-28T07:18:18;103351.66;;;-0.64;100.00
71666;BME280;59503;53.486;10.196;2023-02-28T07:20:44;103342.59;;;-0.45;100.00
71666;BME280;59503;53.486;10.196;2023-02-28T07:23:09;103351.31;;;-0.20;100.00
71666;BME280;59503;53.486;10.196;2023-02-28T07:25:35;103349.41;;;-0.01;100.00
71666;BME280;59503;53.486;10.196;2023-02-28T07:28:01;103354.78;;;0.11;100.00
71666;BME280;59503;53.486;10.196;2023-02-28T07:30:26;103348.22;;;0.25;100.00
71666;BME280;59503;53.486;10.196;2023-02-28T07:32:51;103346.28;;;0.43;100.00
71666;BME280;59503;53.486;10.196;2023-02-28T07:35:17;103352.22;;;0.68;100.00
71666;BME280;59503;53.486;10.196;2023-02-28T07:37:42;103346.75;;;0.86;100.00
71666;BME280;59503;53.486;10.196;2023-02-28T07:40:09;103356.31;;;1.05;100.00
71666;BME280;59503;53.486;10.196;2023-02-28T07:42:37;103355.56;;;1.21;100.00
71666;BME280;59503;53.486;10.196;2023-02-28T07:45:04;103352.75;;;1.40;100.00
71666;BME280;59503;53.486;10.196;2023-02-28T07:47:30;103360.97;;;1.61;100.00
71666;BME280;59503;53.486;10.196;2023-02-28T07:49:56;103356.25;;;1.80;100.00
71666;BME280;59503;53.486;10.196;2023-02-28T07:52:22;103363.19;;;1.92;100.00
71666;BME280;59503;53.486;10.196;2023-02-28T07:54:49;103351.47;;;1.98;100.00
71666;BME280;59503;53.486;10.196;2023-02-28T07:57:14;103348.09;;;2.03;100.00
71666;BME280;59503;53.486;10.196;2023-02-28T07:59:40;103350.41;;;1.83;98.23
71666;BME280;59503;53.486;10.196;2023-02-28T08:02:05;103356.94;;;1.75;99.40
71666;BME280;59503;53.486;10.196;2023-02-28T08:04:32;103353.47;;;2.03;98.62
71666;BME280;59503;53.486;10.196;2023-02-28T08:06:58;103340.91;;;2.20;98.18
71666;BME280;59503;53.486;10.196;2023-02-28T08:09:24;103350.75;;;2.47;96.62
71666;BME280;59503;53.486;10.196;2023-02-28T08:11:49;103353.19;;;2.82;95.96
71666;BME280;59503;53.486;10.196;2023-02-28T08:14:15;103345.59;;;2.79;95.10
71666;BME280;59503;53.486;10.196;2023-02-28T08:16:40;103345.13;;;2.82;94.64
71666;BME280;59503;53.486;10.196;2023-02-28T08:19:06;103353.34;;;2.76;93.69
71666;BME280;59503;53.486;10.196;2023-02-28T08:21:31;103346.28;;;2.70;94.52
71666;BME280;59503;53.486;10.196;2023-02-28T08:23:58;103354.16;;;2.60;93.66
71666;BME280;59503;53.486;10.196;2023-02-28T08:26:23;103353.59;;;2.58;94.60
71666;BME280;59503;53.486;10.196;2023-02-28T08:28:49;103362.13;;;2.71;95.14
71666;BME280;59503;53.486;10.196;2023-02-28T08:31:15;103367.50;;;2.88;94.70
71666;BME280;59503;53.486;10.196;2023-02-28T08:33:42;103359.53;;;3.14;94.20
71666;BME280;59503;53.486;10.196;2023-02-28T08:36:10;103365.34;;;3.66;91.33
71666;BME280;59503;53.486;10.196;2023-02-28T08:38:36;103366.94;;;4.15;88.19
71666;BME280;59503;53.486;10.196;2023-02-28T08:41:04;103366.84;;;4.32;83.84
71666;BME280;59503;53.486;10.196;2023-02-28T08:43:33;103364.28;;;3.94;85.32
71666;BME280;59503;53.486;10.196;2023-02-28T08:45:58;103361.25;;;3.85;86.48
71666;BME280;59503;53.486;10.196;2023-02-28T08:48:28;103369.31;;;4.12;83.61
71666;BME280;59503;53.486;10.196;2023-02-28T08:51:05;103379.88;;;4.45;82.58
71666;BME280;59503;53.486;10.196;2023-02-28T08:53:32;103367.38;;;5.02;80.76
71666;BME280;59503;53.486;10.196;2023-02-28T08:55:59;103374.16;;;5.09;78.34
71666;BME280;59503;53.486;10.196;2023-02-28T08:58:25;103370.63;;;5.09;78.87
71666;BME280;59503;53.486;10.196;2023-02-28T09:00:50;103370.25;;;5.32;77.47
71666;BME280;59503;53.486;10.196;2023-02-28T09:03:16;103369.28;;;5.58;75.90
71666;BME280;59503;53.486;10.196;2023-02-28T09:05:54;103376.78;;;5.46;76.19
71666;BME280;59503;53.486;10.196;2023-02-28T09:08:21;103368.78;;;5.71;75.18
71666;BME280;59503;53.486;10.196;2023-02-28T09:10:46;103369.19;;;6.05;74.52
71666;BME280;59503;53.486;10.196;2023-02-28T09:13:12;103363.53;;;6.01;72.94
71666;BME280;59503;53.486;10.196;2023-02-28T09:15:38;103373.81;;;6.24;71.87
71666;BME280;59503;53.486;10.196;2023-02-28T09:18:03;103361.94;;;6.30;71.45
71666;BME280;59503;53.486;10.196;2023-02-28T09:20:29;103363.28;;;6.73;68.25
71666;BME280;59503;53.486;10.196;2023-02-28T09:22:54;103361.66;;;6.62;68.73
71666;BME280;59503;53.486;10.196;2023-02-28T09:25:20;103371.69;;;6.67;68.22
71666;BME280;59503;53.486;10.196;2023-02-28T09:27:46;103371.41;;;6.73;66.50
71666;BME280;59503;53.486;10.196;2023-02-28T09:30:12;103364.63;;;6.86;66.32
71666;BME280;59503;53.486;10.196;2023-02-28T09:32:37;103369.22;;;6.85;64.88
71666;BME280;59503;53.486;10.196;2023-02-28T09:35:03;103373.53;;;6.96;64.54
71666;BME280;59503;53.486;10.196;2023-02-28T09:37:28;103369.44;;;7.24;63.37
71666;BME280;59503;53.486;10.196;2023-02-28T09:39:54;103364.06;;;7.78;59.01
71666;BME280;59503;53.486;10.196;2023-02-28T09:42:31;103366.34;;;7.50;58.93
71666;BME280;59503;53.486;10.196;2023-02-28T09:44:58;103368.84;;;7.96;61.34
71666;BME280;59503;53.486;10.196;2023-02-28T09:47:35;103375.59;;;7.93;60.59
71666;BME280;59503;53.486;10.196;2023-02-28T09:52:49;103377.78;;;8.73;54.15
71666;BME280;59503;53.486;10.196;2023-02-28T09:57:43;103381.09;;;8.65;51.84
71666;BME280;59503;53.486;10.196;2023-02-28T10:00:17;103378.00;;;8.43;49.22
71666;BME280;59503;53.486;10.196;2023-02-28T10:05:41;103381.97;;;7.69;50.39
71666;BME280;59503;53.486;10.196;2023-02-28T10:08:21;103377.22;;;7.40;51.40
71666;BME280;59503;53.486;10.196;2023-02-28T10:11:11;103378.13;;;6.91;51.76
71666;BME280;59503;53.486;10.196;2023-02-28T10:13:50;103373.81;;;6.85;50.94
71666;BME280;59503;53.486;10.196;2023-02-28T10:16:24;103380.03;;;6.95;51.76
71666;BME280;59503;53.486;10.196;2023-02-28T10:18:59;103377.59;;;7.04;51.96
71666;BME280;59503;53.486;10.196;2023-02-28T10:21:39;103367.88;;;6.68;51.36
71666;BME280;59503;53.486;10.196;2023-02-28T10:27:00;103372.59;;;7.36;51.58
71666;BME280;59503;53.486;10.196;2023-02-28T10:29:28;103372.34;;;7.27;49.26
71666;BME280;59503;53.486;10.196;2023-02-28T10:31:57;103370.19;;;7.34;50.82
71666;BME280;59503;53.486;10.196;2023-02-28T10:34:24;103369.44;;;7.19;51.60
71666;BME280;59503;53.486;10.196;2023-02-28T10:36:50;103363.56;;;7.71;50.08
71666;BME280;59503;53.486;10.196;2023-02-28T10:39:42;103366.06;;;7.52;49.41
71666;BME280;59503;53.486;10.196;2023-02-28T10:42:25;103371.13;;;7.69;50.47
71666;BME280;59503;53.486;10.196;2023-02-28T10:45:15;103359.09;;;7.31;49.25
71666;BME280;59503;53.486;10.196;2023-02-28T10:47:56;103364.09;;;6.94;52.29
71666;BME280;59503;53.486;10.196;2023-02-28T10:53:07;103369.47;;;6.08;54.32
71666;BME280;59503;53.486;10.196;2023-02-28T10:55:33;103368.41;;;6.14;54.45
71666;BME280;59503;53.486;10.196;2023-02-28T10:57:59;103371.56;;;5.86;53.90
71666;BME280;59503;53.486;10.196;2023-02-28T11:00:25;103373.19;;;5.87;55.37
71666;BME280;59503;53.486;10.196;2023-02-28T11:02:56;103366.38;;;5.80;53.65
71666;BME280;59503;53.486;10.196;2023-02-28T11:05:33;103369.34;;;5.78;55.13
71666;BME280;59503;53.486;10.196;2023-02-28T11:08:14;103373.50;;;6.01;55.10
71666;BME280;59503;53.486;10.196;2023-02-28T11:10:44;103371.56;;;5.86;54.67
71666;BME280;59503;53.486;10.196;2023-02-28T11:13:20;103365.31;;;5.76;57.31
71666;BME280;59503;53.486;10.196;2023-02-28T11:15:54;103368.94;;;6.16;55.09
71666;BME280;59503;53.486;10.196;2023-02-28T11:18:24;103370.59;;;6.48;53.84
71666;BME280;59503;53.486;10.196;2023-02-28T11:20:54;103356.50;;;6.91;52.65
71666;BME280;59503;53.486;10.196;2023-02-28T11:23:21;103364.28;;;7.12;50.95
71666;BME280;59503;53.486;10.196;2023-02-28T11:25:53;103364.31;;;7.07;50.87
71666;BME280;59503;53.486;10.196;2023-02-28T11:28:29;103363.06;;;7.58;49.81
71666;BME280;59503;53.486;10.196;2023-02-28T11:31:02;103353.88;;;7.49;50.00
71666;BME280;59503;53.486;10.196;2023-02-28T11:33:37;103353.25;;;7.09;50.88
71666;BME280;59503;53.486;10.196;2023-02-28T11:36:13;103355.94;;;7.04;52.60
71666;BME280;59503;53.486;10.196;2023-02-28T11:38:39;103342.22;;;6.75;50.95
71666;BME280;59503;53.486;10.196;2023-02-28T11:49:10;103327.31;;;6.78;51.92
71666;BME280;59503;53.486;10.196;2023-02-28T11:51:48;103340.31;;;6.36;53.38
71666;BME280;59503;53.486;10.196;2023-02-28T11:56:55;103340.59;;;6.39;55.78
71666;BME280;59503;53.486;10.196;2023-02-28T11:59:46;103336.81;;;6.30;54.59
71666;BME280;59503;53.486;10.196;2023-02-28T12:02:24;103324.38;;;6.24;55.78
71666;BME280;59503;53.486;10.196;2023-02-28T12:10:28;103329.22;;;6.02;52.74
71666;BME280;59503;53.486;10.196;2023-02-28T12:13:16;103324.09;;;6.00;54.32
71666;BME280;59503;53.486;10.196;2023-02-28T12:26:47;103294.94;;;6.12;55.40
71666;BME280;59503;53.486;10.196;2023-02-28T12:29:17;103297.09;;;6.25;54.19
71666;BME280;59503;53.486;10.196;2023-02-28T12:31:49;103289.53;;;6.43;54.17
71666;BME280;59503;53.486;10.196;2023-02-28T12:34:20;103285.75;;;6.39;54.14
71666;BME280;59503;53.486;10.196;2023-02-28T12:36:48;103276.03;;;6.48;54.60
71666;BME280;59503;53.486;10.196;2023-02-28T12:39:28;103283.31;;;6.47;55.02
71666;BME280;59503;53.486;10.196;2023-02-28T12:45:05;103274.94;;;6.54;53.94
71666;BME280;59503;53.486;10.196;2023-02-28T12:47:28;103275.44;;;6.71;52.69
71666;BME280;59503;53.486;10.196;2023-02-28T12:52:34;103263.03;;;6.60;53.56
71666;BME280;59503;53.486;10.196;2023-02-28T12:55:12;103257.63;;;6.65;51.89
71666;BME280;59503;53.486;10.196;2023-02-28T12:57:47;103248.13;;;6.77;54.01
71666;BME280;59503;53.486;10.196;2023-02-28T13:00:20;103244.63;;;6.82;53.61
71666;BME280;59503;53.486;10.196;2023-02-28T13:03:06;103242.69;;;6.87;53.17
71666;BME280;59503;53.486;10.196;2023-02-28T13:11:33;103227.56;;;6.81;51.64
71666;BME280;59503;53.486;10.196;2023-02-28T13:14:05;103224.59;;;6.83;50.78
71666;BME280;59503;53.486;10.196;2023-02-28T13:16:55;103219.09;;;7.03;53.02
71666;BME280;59503;53.486;10.196;2023-02-28T13:19:24;103223.41;;;7.09;51.86
71666;BME280;59503;53.486;10.196;2023-02-28T13:21:51;103223.91;;;7.16;51.14
71666;BME280;59503;53.486;10.196;2023-02-28T13:29:33;103223.31;;;7.29;52.17
71666;BME280;59503;53.486;10.196;2023-02-28T13:34:32;103213.03;;;7.26;49.68
71666;BME280;59503;53.486;10.196;2023-02-28T13:47:30;103223.63;;;7.61;49.02
71666;BME280;59503;53.486;10.196;2023-02-28T13:50:23;103227.88;;;8.11;48.30
71666;BME280;59503;53.486;10.196;2023-02-28T13:56:05;103226.28;;;8.38;48.81
71666;BME280;59503;53.486;10.196;2023-02-28T13:58:48;103232.66;;;8.76;48.08
71666;BME280;59503;53.486;10.196;2023-02-28T14:06:32;103224.28;;;8.72;47.92
71666;BME280;59503;53.486;10.196;2023-02-28T14:11:39;103218.63;;;8.45;48.19
71666;BME280;59503;53.486;10.196;2023-02-28T14:14:07;103218.81;;;8.25;48.26
71666;BME280;59503;53.486;10.196;2023-02-28T14:16:39;103225.94;;;8.16;47.45
71666;BME280;59503;53.486;10.196;2023-02-28T14:19:25;103217.22;;;7.52;47.40
71666;BME280;59503;53.486;10.196;2023-02-28T14:27:34;103221.50;;;7.58;49.52
71666;BME280;59503;53.486;10.196;2023-02-28T14:37:53;103217.09;;;7.28;49.90
71666;BME280;59503;53.486;10.196;2023-02-28T14:40:33;103212.78;;;7.22;51.55
71666;BME280;59503;53.486;10.196;2023-02-28T14:43:04;103220.06;;;7.32;50.93
71666;BME280;59503;53.486;10.196;2023-02-28T14:45:35;103218.63;;;7.39;51.28
71666;BME280;59503;53.486;10.196;2023-02-28T14:48:03;103218.38;;;7.36;51.97
71666;BME280;59503;53.486;10.196;2023-02-28T14:50:35;103215.81;;;7.11;50.79